Time;durP1;ratioP1;P1;durP2;ratioP2;P2;SDS_P1;SDS_P2;PMS_P1;PMS_P2;Temp;Humidity;BMP_temperature;BMP_pressure;BME280_temperature;BME280_humidity;BME280_pressure;Samples;Min_cycle;Max_cycle;Signal;HPM_P1;HPM_P2
2022/11/09 00:01:38;;;;;;;13.93;11.17;;;;;;;;;;5051270;28;20227;-78
2022/11/09 00:04:07;;;;;;;15.77;11.63;;;;;;;;;;5051234;28;20206;-78
2022/11/09 00:06:35;;;;;;;15.87;12.33;;;;;;;;;;5050705;28;20222;-78
2022/11/09 00:09:03;;;;;;;16.27;12.87;;;;;;;;;;5051756;28;20198;-78
2022/11/09 00:11:30;;;;;;;18.10;12.00;;;;;;;;;;5051137;28;20277;-78
2022/11/09 00:13:57;;;;;;;17.53;11.70;;;;;;;;;;5051010;28;20202;-78
2022/11/09 00:16:24;;;;;;;13.77;9.63;;;;;;;;;;5051328;28;20209;-78
2022/11/09 00:18:52;;;;;;;12.87;10.00;;;;;;;;;;5051170;28;20210;-78
2022/11/09 00:21:21;;;;;;;12.33;9.13;;;;;;;;;;5051020;28;20202;-78
2022/11/09 00:23:48;;;;;;;11.03;9.27;;;;;;;;;;5051251;28;20299;-78
2022/11/09 00:26:16;;;;;;;18.77;10.53;;;;;;;;;;5050756;28;20229;-79
2022/11/09 00:28:43;;;;;;;14.60;9.33;;;;;;;;;;5050894;28;20205;-79
2022/11/09 00:31:12;;;;;;;13.60;10.13;;;;;;;;;;5050769;28;20198;-78
2022/11/09 00:33:39;;;;;;;15.20;10.93;;;;;;;;;;5051123;28;20202;-78
2022/11/09 00:36:07;;;;;;;14.70;11.37;;;;;;;;;;5050393;28;20198;-79
2022/11/09 00:38:35;;;;;;;20.17;11.90;;;;;;;;;;5050974;28;20659;-80
2022/11/09 00:41:02;;;;;;;16.60;10.80;;;;;;;;;;5050618;28;20202;-79
2022/11/09 00:43:29;;;;;;;9.00;7.90;;;;;;;;;;5050688;28;20659;-79
2022/11/09 00:45:56;;;;;;;12.10;8.90;;;;;;;;;;5050581;28;20234;-78
2022/11/09 00:48:23;;;;;;;12.37;9.07;;;;;;;;;;5050814;28;20643;-79
2022/11/09 00:50:50;;;;;;;11.73;9.00;;;;;;;;;;5050526;28;20198;-78
2022/11/09 00:53:17;;;;;;;12.57;10.07;;;;;;;;;;5050564;28;20209;-80
2022/11/09 00:55:53;;;;;;;12.53;9.03;;;;;;;;;;5049905;28;20620;-79
2022/11/09 00:58:20;;;;;;;10.57;9.23;;;;;;;;;;5050962;28;20639;-79
2022/11/09 01:00:46;;;;;;;14.23;9.93;;;;;;;;;;5050358;28;20193;-78
2022/11/09 01:03:13;;;;;;;15.00;9.50;;;;;;;;;;5050423;28;20213;-79
2022/11/09 01:05:40;;;;;;;12.83;10.33;;;;;;;;;;5050315;28;20229;-78
2022/11/09 01:08:07;;;;;;;12.93;10.63;;;;;;;;;;5050269;28;20210;-79
2022/11/09 01:10:34;;;;;;;17.67;12.97;;;;;;;;;;5050095;28;20205;-79
2022/11/09 01:13:02;;;;;;;20.63;11.77;;;;;;;;;;5050549;28;20206;-79
2022/11/09 01:15:29;;;;;;;19.43;11.63;;;;;;;;;;5049780;28;20205;-78
2022/11/09 01:17:56;;;;;;;18.37;12.40;;;;;;;;;;5050073;28;20206;-79
2022/11/09 01:20:22;;;;;;;14.53;12.03;;;;;;;;;;5050083;28;20209;-79
2022/11/09 01:22:49;;;;;;;22.07;12.10;;;;;;;;;;5050094;28;20276;-79
2022/11/09 01:25:16;;;;;;;16.20;11.97;;;;;;;;;;5050035;28;20225;-79
2022/11/09 01:27:43;;;;;;;15.70;11.80;;;;;;;;;;5050133;28;20216;-79
2022/11/09 01:30:13;;;;;;;22.27;11.83;;;;;;;;;;5050105;28;20221;-79
2022/11/09 01:32:39;;;;;;;19.00;13.03;;;;;;;;;;5050286;28;20205;-79
2022/11/09 01:35:06;;;;;;;17.53;11.70;;;;;;;;;;5049576;28;20201;-78
2022/11/09 01:37:33;;;;;;;18.00;12.83;;;;;;;;;;5050475;28;20206;-78
2022/11/09 01:40:00;;;;;;;20.50;13.97;;;;;;;;;;5049860;28;20202;-78
2022/11/09 01:42:27;;;;;;;19.73;13.33;;;;;;;;;;5050048;28;20289;-79
2022/11/09 01:45:24;;;;;;;22.60;13.93;;;;;;;;;;5050031;28;20202;-79
2022/11/09 01:47:57;;;;;;;17.40;13.53;;;;;;;;;;5039894;28;20214;-78
2022/11/09 01:50:30;;;;;;;18.70;13.67;;;;;;;;;;5050168;28;20213;-79
2022/11/09 01:52:58;;;;;;;16.13;12.93;;;;;;;;;;5049901;28;20209;-78
2022/11/09 01:55:25;;;;;;;15.87;11.93;;;;;;;;;;5049590;28;20213;-79
2022/11/09 01:57:54;;;;;;;13.57;10.03;;;;;;;;;;5049832;28;20201;-78
2022/11/09 02:00:21;;;;;;;15.83;11.27;;;;;;;;;;5049927;28;20212;-79
2022/11/09 02:02:53;;;;;;;11.20;9.97;;;;;;;;;;5050037;28;20206;-78
2022/11/09 02:05:23;;;;;;;16.63;11.53;;;;;;;;;;5049553;28;20232;-79
2022/11/09 02:07:50;;;;;;;13.00;10.27;;;;;;;;;;5048832;28;20212;-78
2022/11/09 02:10:22;;;;;;;14.50;11.60;;;;;;;;;;5049906;28;20210;-78
2022/11/09 02:12:49;;;;;;;16.10;12.27;;;;;;;;;;5049426;28;20217;-78
2022/11/09 02:15:16;;;;;;;17.17;12.07;;;;;;;;;;5050023;28;20268;-78
2022/11/09 02:17:43;;;;;;;13.57;11.10;;;;;;;;;;5049863;28;20279;-79
2022/11/09 02:20:13;;;;;;;12.63;11.33;;;;;;;;;;5050031;28;20202;-78
2022/11/09 02:22:41;;;;;;;15.20;10.63;;;;;;;;;;5049588;28;20237;-78
2022/11/09 02:25:09;;;;;;;16.57;12.43;;;;;;;;;;5048743;28;20229;-78
2022/11/09 02:27:36;;;;;;;16.63;12.27;;;;;;;;;;5049922;28;20206;-78
2022/11/09 02:30:05;;;;;;;16.30;12.10;;;;;;;;;;5050360;28;20213;-78
2022/11/09 02:32:31;;;;;;;16.90;12.87;;;;;;;;;;5053465;28;20205;-78
2022/11/09 02:34:58;;;;;;;18.70;12.67;;;;;;;;;;5053419;28;20201;-78
2022/11/09 02:37:30;;;;;;;18.77;13.40;;;;;;;;;;5052311;28;20198;-78
2022/11/09 02:39:59;;;;;;;18.07;14.00;;;;;;;;;;5052138;28;20215;-78
2022/11/09 02:42:25;;;;;;;15.87;12.40;;;;;;;;;;5052590;28;20213;-78
2022/11/09 02:44:55;;;;;;;15.83;12.97;;;;;;;;;;5053301;28;20210;-78
2022/11/09 02:47:22;;;;;;;15.87;12.53;;;;;;;;;;5039215;28;20228;-78
2022/11/09 02:49:49;;;;;;;14.80;12.40;;;;;;;;;;5052777;28;20206;-78
2022/11/09 02:52:16;;;;;;;17.23;13.20;;;;;;;;;;5049655;28;20604;-79
2022/11/09 02:54:44;;;;;;;15.17;13.57;;;;;;;;;;5051517;28;20662;-77
2022/11/09 02:57:11;;;;;;;26.40;19.63;;;;;;;;;;5051632;28;20210;-78
2022/11/09 02:59:37;;;;;;;27.97;21.00;;;;;;;;;;5052286;28;20201;-77
2022/11/09 03:02:04;;;;;;;23.30;17.60;;;;;;;;;;5052462;28;20213;-77
2022/11/09 03:04:31;;;;;;;22.53;15.30;;;;;;;;;;5052470;28;20227;-77
2022/11/09 03:06:58;;;;;;;19.17;14.73;;;;;;;;;;5051883;28;20230;-77
2022/11/09 03:09:24;;;;;;;20.27;12.60;;;;;;;;;;5052500;28;20271;-76
2022/11/09 03:11:52;;;;;;;18.67;12.87;;;;;;;;;;5052740;28;20206;-77
2022/11/09 03:14:19;;;;;;;18.10;12.63;;;;;;;;;;5052341;28;20206;-77
2022/11/09 03:16:46;;;;;;;15.83;11.60;;;;;;;;;;5052311;28;20202;-76
2022/11/09 03:19:13;;;;;;;18.53;12.00;;;;;;;;;;5051857;28;20201;-77
2022/11/09 03:21:39;;;;;;;18.83;12.97;;;;;;;;;;5052466;28;20206;-77
2022/11/09 03:24:07;;;;;;;16.43;13.33;;;;;;;;;;5052108;28;20252;-77
2022/11/09 03:26:34;;;;;;;19.10;14.27;;;;;;;;;;5052023;28;20708;-77
2022/11/09 03:29:02;;;;;;;16.97;13.13;;;;;;;;;;5052009;28;20784;-79
2022/11/09 03:31:28;;;;;;;18.60;13.90;;;;;;;;;;5052064;28;20217;-78
2022/11/09 03:33:55;;;;;;;19.80;13.80;;;;;;;;;;5051820;28;20201;-77
2022/11/09 03:36:22;;;;;;;22.70;14.07;;;;;;;;;;5051696;28;20217;-80
2022/11/09 03:38:49;;;;;;;25.43;13.90;;;;;;;;;;5051858;28;20213;-79
2022/11/09 03:41:15;;;;;;;17.90;13.73;;;;;;;;;;5050717;28;20202;-79
2022/11/09 03:43:42;;;;;;;16.80;13.67;;;;;;;;;;5045322;28;20259;-80
2022/11/09 03:46:10;;;;;;;17.27;12.70;;;;;;;;;;5051270;28;20593;-79
2022/11/09 03:48:37;;;;;;;21.87;12.80;;;;;;;;;;5051394;28;20198;-80
2022/11/09 03:51:04;;;;;;;18.07;12.80;;;;;;;;;;5051714;28;20259;-79
2022/11/09 03:53:30;;;;;;;19.33;13.67;;;;;;;;;;5051095;28;20763;-79
2022/11/09 03:55:57;;;;;;;22.07;15.20;;;;;;;;;;5050845;28;20608;-79
2022/11/09 03:58:24;;;;;;;22.67;13.87;;;;;;;;;;5050793;28;20565;-78
2022/11/09 04:00:52;;;;;;;17.93;13.00;;;;;;;;;;5050866;28;20259;-80
2022/11/09 04:03:20;;;;;;;15.80;13.03;;;;;;;;;;5048610;28;20213;-80
2022/11/09 04:05:47;;;;;;;17.40;14.77;;;;;;;;;;5050572;28;20202;-80
2022/11/09 04:08:14;;;;;;;21.13;13.77;;;;;;;;;;5051238;28;20268;-79
2022/11/09 04:10:40;;;;;;;19.47;13.33;;;;;;;;;;5051480;28;20627;-80
2022/11/09 04:13:07;;;;;;;19.77;13.10;;;;;;;;;;5051664;28;20205;-80
2022/11/09 04:15:34;;;;;;;19.60;13.53;;;;;;;;;;5050307;28;20194;-79
2022/11/09 04:18:02;;;;;;;20.20;14.00;;;;;;;;;;5050548;28;20693;-80
2022/11/09 04:20:31;;;;;;;16.23;13.63;;;;;;;;;;5051031;28;20205;-80
2022/11/09 04:23:00;;;;;;;16.27;13.23;;;;;;;;;;5049425;28;20252;-80
2022/11/09 04:25:27;;;;;;;26.47;18.37;;;;;;;;;;5050692;28;20206;-80
2022/11/09 04:27:55;;;;;;;20.00;15.47;;;;;;;;;;5050503;28;20275;-80
2022/11/09 04:30:22;;;;;;;16.77;13.57;;;;;;;;;;5049698;28;20221;-80
2022/11/09 04:32:49;;;;;;;19.80;12.83;;;;;;;;;;5050820;28;20194;-79
2022/11/09 04:35:15;;;;;;;18.13;15.13;;;;;;;;;;5050886;28;20209;-79
2022/11/09 04:37:44;;;;;;;19.57;13.77;;;;;;;;;;5050763;28;20202;-80
2022/11/09 04:40:12;;;;;;;19.90;13.67;;;;;;;;;;5037675;28;20232;-80
2022/11/09 04:42:38;;;;;;;18.43;13.63;;;;;;;;;;5050105;28;20197;-80
2022/11/09 04:45:06;;;;;;;18.53;12.77;;;;;;;;;;5043319;28;20632;-80
2022/11/09 04:47:33;;;;;;;18.50;13.27;;;;;;;;;;5046312;28;20283;-80
2022/11/09 04:50:00;;;;;;;17.10;14.97;;;;;;;;;;5049254;28;20666;-81
2022/11/09 04:52:27;;;;;;;25.23;14.43;;;;;;;;;;5042971;28;20198;-81
2022/11/09 04:54:55;;;;;;;19.43;14.30;;;;;;;;;;5030459;28;20207;-80
2022/11/09 04:57:21;;;;;;;20.57;14.13;;;;;;;;;;5041372;28;20198;-80
2022/11/09 04:59:48;;;;;;;21.33;12.97;;;;;;;;;;5050563;28;20220;-80
2022/11/09 05:02:15;;;;;;;18.03;13.73;;;;;;;;;;5049325;28;20209;-81
2022/11/09 05:04:42;;;;;;;16.20;14.43;;;;;;;;;;5047473;28;20198;-81
2022/11/09 05:07:08;;;;;;;16.17;12.90;;;;;;;;;;5048985;28;20245;-81
2022/11/09 05:09:35;;;;;;;19.20;13.63;;;;;;;;;;5049631;28;20202;-81
2022/11/09 05:12:03;;;;;;;21.10;14.10;;;;;;;;;;5048449;28;20251;-80
2022/11/09 05:14:30;;;;;;;22.90;14.67;;;;;;;;;;5046276;28;20204;-81
2022/11/09 05:16:57;;;;;;;20.37;13.20;;;;;;;;;;5047621;28;20210;-79
2022/11/09 05:19:24;;;;;;;21.80;15.63;;;;;;;;;;5048633;28;20277;-79
2022/11/09 05:21:51;;;;;;;23.80;14.90;;;;;;;;;;5050241;28;20209;-80
2022/11/09 05:24:17;;;;;;;18.67;14.67;;;;;;;;;;5049753;28;20240;-80
2022/11/09 05:26:44;;;;;;;24.13;14.77;;;;;;;;;;5049479;28;20593;-80
2022/11/09 05:29:13;;;;;;;17.87;11.90;;;;;;;;;;5050264;28;20213;-79
2022/11/09 05:31:41;;;;;;;16.40;13.43;;;;;;;;;;5048197;28;20202;-80
2022/11/09 05:34:08;;;;;;;17.10;12.57;;;;;;;;;;5049547;28;20201;-80
2022/11/09 05:36:34;;;;;;;14.70;12.07;;;;;;;;;;5047421;28;20213;-80
2022/11/09 05:39:01;;;;;;;24.33;13.70;;;;;;;;;;5047166;28;20414;-80
2022/11/09 05:41:28;;;;;;;19.07;12.80;;;;;;;;;;5049524;28;20209;-80
2022/11/09 05:43:55;;;;;;;20.90;14.43;;;;;;;;;;5048554;28;20205;-79
2022/11/09 05:46:24;;;;;;;22.83;13.70;;;;;;;;;;5050228;28;20226;-80
2022/11/09 05:48:50;;;;;;;25.43;14.27;;;;;;;;;;5050090;28;20304;-79
2022/11/09 05:51:17;;;;;;;25.17;14.27;;;;;;;;;;5050661;28;20210;-80
2022/11/09 05:53:44;;;;;;;20.63;14.20;;;;;;;;;;5050026;28;20210;-80
2022/11/09 05:56:12;;;;;;;19.77;14.53;;;;;;;;;;5049965;28;20201;-80
2022/11/09 05:58:40;;;;;;;21.50;14.83;;;;;;;;;;5050625;28;20206;-80
2022/11/09 06:01:08;;;;;;;23.30;15.50;;;;;;;;;;5050007;28;20209;-80
2022/11/09 06:03:36;;;;;;;17.70;14.03;;;;;;;;;;5050251;28;20202;-80
2022/11/09 06:06:05;;;;;;;27.03;15.73;;;;;;;;;;5052059;28;20206;-80
2022/11/09 06:08:32;;;;;;;16.77;14.67;;;;;;;;;;5053907;28;20228;-80
2022/11/09 06:11:00;;;;;;;20.07;14.10;;;;;;;;;;5053963;28;20197;-80
2022/11/09 06:13:26;;;;;;;18.87;13.23;;;;;;;;;;5054205;28;20202;-79
2022/11/09 06:15:54;;;;;;;16.87;13.87;;;;;;;;;;5053536;28;20206;-80
2022/11/09 06:18:21;;;;;;;19.87;13.00;;;;;;;;;;5053707;28;20263;-80
2022/11/09 06:20:52;;;;;;;26.13;23.40;;;;;;;;;;5053241;28;20202;-79
2022/11/09 06:23:24;;;;;;;18.17;13.97;;;;;;;;;;5053901;28;20682;-80
2022/11/09 06:25:52;;;;;;;23.43;14.23;;;;;;;;;;5053490;28;20233;-79
2022/11/09 06:28:18;;;;;;;23.57;14.60;;;;;;;;;;5053442;28;20222;-80
2022/11/09 06:30:45;;;;;;;18.37;13.80;;;;;;;;;;5053874;28;20205;-80
2022/11/09 06:33:12;;;;;;;20.40;13.30;;;;;;;;;;5053172;28;20202;-80
2022/11/09 06:35:39;;;;;;;17.73;13.10;;;;;;;;;;5053727;28;20255;-79
2022/11/09 06:38:10;;;;;;;19.37;13.73;;;;;;;;;;5053355;28;20202;-79
2022/11/09 06:40:38;;;;;;;20.83;12.90;;;;;;;;;;5053360;28;20240;-79
2022/11/09 06:43:05;;;;;;;13.57;12.23;;;;;;;;;;5053358;28;20595;-79
2022/11/09 06:45:32;;;;;;;16.77;12.57;;;;;;;;;;5053108;28;20202;-79
2022/11/09 06:48:00;;;;;;;15.10;12.77;;;;;;;;;;5052861;28;20712;-79
2022/11/09 06:50:29;;;;;;;18.43;13.07;;;;;;;;;;5052796;28;20205;-79
2022/11/09 06:52:57;;;;;;;18.57;13.80;;;;;;;;;;5053392;28;20206;-79
2022/11/09 06:55:25;;;;;;;16.50;14.43;;;;;;;;;;5052708;28;20728;-79
2022/11/09 06:57:52;;;;;;;19.73;13.60;;;;;;;;;;5053145;28;20201;-79
2022/11/09 07:00:20;;;;;;;15.40;12.30;;;;;;;;;;5052484;28;20205;-80
2022/11/09 07:02:46;;;;;;;17.93;11.93;;;;;;;;;;5052617;28;20637;-80
2022/11/09 07:05:13;;;;;;;13.33;11.00;;;;;;;;;;5053245;28;20210;-79
2022/11/09 07:07:40;;;;;;;18.83;12.97;;;;;;;;;;5052737;28;20604;-79
2022/11/09 07:10:07;;;;;;;17.63;12.40;;;;;;;;;;5052803;28;20681;-79
2022/11/09 07:12:35;;;;;;;15.57;12.30;;;;;;;;;;5052467;28;20264;-80
2022/11/09 07:15:03;;;;;;;16.77;12.13;;;;;;;;;;5052389;28;20210;-80
2022/11/09 07:17:30;;;;;;;21.33;11.73;;;;;;;;;;5052414;28;20746;-80
2022/11/09 07:19:57;;;;;;;16.30;11.70;;;;;;;;;;5052522;28;20234;-80
2022/11/09 07:22:24;;;;;;;13.73;11.00;;;;;;;;;;5052303;28;20233;-80
2022/11/09 07:24:51;;;;;;;13.13;10.03;;;;;;;;;;5052682;28;20213;-80
2022/11/09 07:27:18;;;;;;;14.83;10.60;;;;;;;;;;5052125;28;20221;-80
2022/11/09 07:29:46;;;;;;;13.43;10.60;;;;;;;;;;5052238;28;20209;-79
2022/11/09 07:32:12;;;;;;;16.90;10.73;;;;;;;;;;5052415;28;20598;-79
2022/11/09 07:34:39;;;;;;;14.67;10.20;;;;;;;;;;5052246;28;20204;-79
2022/11/09 07:37:06;;;;;;;12.13;9.67;;;;;;;;;;5052980;28;20213;-79
2022/11/09 07:39:33;;;;;;;16.87;11.80;;;;;;;;;;5052259;28;20201;-79
2022/11/09 07:41:59;;;;;;;11.97;9.27;;;;;;;;;;5052111;28;20206;-79
2022/11/09 07:44:26;;;;;;;13.23;9.53;;;;;;;;;;5052402;28;20192;-79
2022/11/09 07:46:54;;;;;;;13.67;9.97;;;;;;;;;;5052437;28;20208;-79
2022/11/09 07:49:21;;;;;;;14.00;10.27;;;;;;;;;;5052254;28;20209;-79
2022/11/09 07:51:48;;;;;;;10.93;9.37;;;;;;;;;;5051708;28;20213;-79
2022/11/09 07:54:15;;;;;;;13.87;9.07;;;;;;;;;;5052089;28;20202;-79
2022/11/09 07:56:41;;;;;;;19.10;9.93;;;;;;;;;;5051834;28;20212;-79
2022/11/09 07:59:08;;;;;;;14.60;9.93;;;;;;;;;;5051667;28;20587;-79
2022/11/09 08:01:35;;;;;;;10.37;9.27;;;;;;;;;;5052190;28;20224;-79
2022/11/09 08:04:05;;;;;;;11.30;9.20;;;;;;;;;;5051986;28;20285;-79
2022/11/09 08:06:31;;;;;;;11.17;8.87;;;;;;;;;;5051664;28;20209;-79
2022/11/09 08:08:58;;;;;;;10.90;8.80;;;;;;;;;;5051767;28;20222;-79
2022/11/09 08:11:27;;;;;;;10.57;8.33;;;;;;;;;;5051299;28;20198;-79
2022/11/09 08:13:54;;;;;;;12.70;9.53;;;;;;;;;;5051388;28;20300;-79
2022/11/09 08:16:21;;;;;;;11.53;9.53;;;;;;;;;;5051527;28;20205;-79
2022/11/09 08:18:49;;;;;;;9.93;8.67;;;;;;;;;;5051946;28;20206;-79
2022/11/09 08:21:17;;;;;;;12.93;8.70;;;;;;;;;;5051233;28;20636;-80
2022/11/09 08:23:44;;;;;;;10.13;8.93;;;;;;;;;;5051581;28;20222;-79
2022/11/09 08:26:11;;;;;;;13.10;9.00;;;;;;;;;;5051319;28;20244;-79
2022/11/09 08:28:38;;;;;;;12.70;8.80;;;;;;;;;;5050879;28;20217;-79
2022/11/09 08:31:08;;;;;;;11.13;7.83;;;;;;;;;;5051261;28;20205;-79
2022/11/09 08:33:36;;;;;;;9.03;7.70;;;;;;;;;;5051242;28;20211;-79
2022/11/09 08:36:09;;;;;;;9.03;7.80;;;;;;;;;;5050868;28;20211;-79
2022/11/09 08:38:37;;;;;;;11.50;7.50;;;;;;;;;;5051290;28;20212;-79
2022/11/09 08:41:04;;;;;;;14.10;8.67;;;;;;;;;;5051299;28;20201;-80
2022/11/09 08:43:31;;;;;;;13.73;7.67;;;;;;;;;;5051139;28;20205;-80
2022/11/09 08:45:57;;;;;;;10.57;8.00;;;;;;;;;;5051381;28;20198;-79
2022/11/09 08:48:24;;;;;;;10.27;7.70;;;;;;;;;;5051103;28;20264;-79
2022/11/09 08:50:52;;;;;;;10.40;7.60;;;;;;;;;;5050807;28;20213;-79
2022/11/09 08:53:19;;;;;;;12.13;7.47;;;;;;;;;;5050744;28;20199;-79
2022/11/09 08:55:47;;;;;;;15.83;8.30;;;;;;;;;;5050960;28;20256;-79
2022/11/09 08:58:14;;;;;;;12.33;7.77;;;;;;;;;;5050931;28;20650;-79
2022/11/09 09:00:41;;;;;;;10.60;7.87;;;;;;;;;;5050486;28;20640;-79
2022/11/09 09:03:08;;;;;;;12.63;7.40;;;;;;;;;;5050576;28;20213;-80
2022/11/09 09:05:36;;;;;;;15.30;7.80;;;;;;;;;;5050735;28;20692;-79
2022/11/09 09:08:04;;;;;;;12.23;7.63;;;;;;;;;;5050535;28;20230;-79
2022/11/09 09:10:34;;;;;;;7.30;6.47;;;;;;;;;;5050906;28;20718;-79
2022/11/09 09:13:02;;;;;;;8.63;7.50;;;;;;;;;;5050913;28;20206;-79
2022/11/09 09:15:29;;;;;;;9.20;7.80;;;;;;;;;;5050495;28;20231;-79
2022/11/09 09:17:56;;;;;;;9.63;7.27;;;;;;;;;;5050547;28;20206;-79
2022/11/09 09:20:22;;;;;;;9.83;7.60;;;;;;;;;;5050731;28;20213;-80
2022/11/09 09:22:49;;;;;;;9.70;6.73;;;;;;;;;;5050342;28;20237;-79
2022/11/09 09:25:16;;;;;;;14.47;8.40;;;;;;;;;;5050648;28;20205;-79
2022/11/09 09:27:43;;;;;;;9.43;7.23;;;;;;;;;;5050577;28;20221;-79
2022/11/09 09:30:13;;;;;;;11.87;7.83;;;;;;;;;;5050601;28;20260;-79
2022/11/09 09:32:39;;;;;;;10.33;7.83;;;;;;;;;;5049989;28;20302;-79
2022/11/09 09:35:07;;;;;;;10.23;7.67;;;;;;;;;;5050666;28;20253;-79
2022/11/09 09:37:34;;;;;;;9.97;7.50;;;;;;;;;;5050640;28;20253;-79
2022/11/09 09:40:00;;;;;;;9.77;7.00;;;;;;;;;;5053230;28;20206;-79
2022/11/09 09:42:31;;;;;;;14.30;7.53;;;;;;;;;;5054356;28;20206;-79
2022/11/09 09:45:01;;;;;;;9.67;7.30;;;;;;;;;;5053821;28;20206;-80
2022/11/09 09:47:38;;;;;;;10.30;6.60;;;;;;;;;;5054868;28;20209;-79
2022/11/09 09:50:09;;;;;;;8.27;6.07;;;;;;;;;;5054100;28;20214;-80
2022/11/09 09:52:39;;;;;;;12.50;6.33;;;;;;;;;;5054567;28;20206;-79
2022/11/09 09:55:12;;;;;;;7.27;6.23;;;;;;;;;;5054324;28;20210;-79
2022/11/09 09:57:40;;;;;;;10.50;7.23;;;;;;;;;;5054105;28;20214;-79
2022/11/09 10:00:10;;;;;;;9.30;6.40;;;;;;;;;;5054134;28;20207;-78
2022/11/09 10:02:39;;;;;;;11.33;7.03;;;;;;;;;;5054261;28;20201;-79
2022/11/09 10:05:10;;;;;;;9.60;6.20;;;;;;;;;;5053961;28;20215;-79
2022/11/09 10:07:41;;;;;;;9.07;6.30;;;;;;;;;;5054117;28;20235;-79
2022/11/09 10:10:28;;;;;;;12.77;6.20;;;;;;;;;;5053397;28;20214;-79
2022/11/09 10:13:13;;;;;;;10.27;6.67;;;;;;;;;;5040772;28;20229;-79
2022/11/09 10:15:45;;;;;;;11.10;6.80;;;;;;;;;;5053799;28;20271;-79
2022/11/09 10:18:24;;;;;;;8.83;6.63;;;;;;;;;;5054108;28;20209;-79
2022/11/09 10:21:03;;;;;;;7.63;6.67;;;;;;;;;;5053260;28;20599;-79
2022/11/09 10:23:40;;;;;;;7.13;6.20;;;;;;;;;;5053720;28;20232;-79
2022/11/09 10:26:16;;;;;;;12.90;6.57;;;;;;;;;;5053431;28;20200;-79
2022/11/09 10:28:44;;;;;;;10.63;6.47;;;;;;;;;;5053230;28;20258;-80
2022/11/09 10:31:14;;;;;;;9.50;7.20;;;;;;;;;;5053450;28;20220;-79
2022/11/09 10:33:42;;;;;;;7.87;6.20;;;;;;;;;;5053681;28;20208;-79
2022/11/09 10:36:20;;;;;;;10.77;8.17;;;;;;;;;;5053281;28;20230;-79
2022/11/09 10:38:50;;;;;;;13.07;7.60;;;;;;;;;;5054108;28;20230;-79
2022/11/09 10:41:24;;;;;;;7.57;6.73;;;;;;;;;;5052670;28;20653;-79
2022/11/09 10:43:51;;;;;;;11.97;7.13;;;;;;;;;;5053625;28;20300;-80
2022/11/09 10:46:20;;;;;;;16.70;7.03;;;;;;;;;;5053587;28;20203;-80
2022/11/09 10:48:48;;;;;;;7.73;6.90;;;;;;;;;;5053160;28;20621;-79
2022/11/09 10:51:32;;;;;;;11.07;7.57;;;;;;;;;;5052827;28;20237;-79
2022/11/09 10:54:15;;;;;;;7.77;7.03;;;;;;;;;;5052789;28;20200;-79
2022/11/09 10:56:45;;;;;;;9.17;7.20;;;;;;;;;;5053025;28;20203;-80
2022/11/09 10:59:40;;;;;;;10.13;8.20;;;;;;;;;;5052999;28;20205;-79
2022/11/09 11:02:43;;;;;;;11.73;8.60;;;;;;;;;;5052806;28;20208;-80
2022/11/09 11:05:38;;;;;;;16.53;8.27;;;;;;;;;;5053089;28;20216;-79
2022/11/09 11:08:23;;;;;;;11.43;8.60;;;;;;;;;;5053018;28;20621;-79
2022/11/09 11:10:50;;;;;;;9.53;8.13;;;;;;;;;;5052887;28;20198;-80
2022/11/09 11:13:24;;;;;;;16.03;8.10;;;;;;;;;;5053500;28;20205;-79
2022/11/09 11:15:52;;;;;;;10.00;8.13;;;;;;;;;;5052684;28;20715;-80
2022/11/09 11:18:24;;;;;;;10.40;7.90;;;;;;;;;;5052992;28;20213;-79
2022/11/09 11:21:14;;;;;;;10.57;8.07;;;;;;;;;;5051975;28;20201;-80
2022/11/09 11:23:41;;;;;;;10.47;7.53;;;;;;;;;;5052813;28;20234;-80
2022/11/09 11:26:35;;;;;;;13.40;9.00;;;;;;;;;;5052460;28;20205;-80
2022/11/09 11:29:06;;;;;;;11.53;7.90;;;;;;;;;;5052633;28;20312;-80
2022/11/09 11:31:33;;;;;;;11.13;8.43;;;;;;;;;;5052277;28;20267;-80
2022/11/09 11:34:02;;;;;;;15.30;8.10;;;;;;;;;;5052663;28;20213;-80
2022/11/09 11:36:41;;;;;;;12.07;8.00;;;;;;;;;;5051961;28;20677;-79
2022/11/09 11:39:17;;;;;;;9.10;7.80;;;;;;;;;;5052438;28;20685;-80
2022/11/09 11:42:06;;;;;;;11.90;9.17;;;;;;;;;;5051705;28;20193;-80
2022/11/09 11:44:48;;;;;;;11.93;9.03;;;;;;;;;;5051965;28;20209;-80
2022/11/09 11:47:19;;;;;;;10.13;8.03;;;;;;;;;;5052063;28;20573;-80
2022/11/09 11:50:14;;;;;;;9.63;7.10;;;;;;;;;;5051952;28;20226;-79
2022/11/09 11:52:52;;;;;;;11.83;9.67;;;;;;;;;;5051229;28;20206;-79
2022/11/09 11:55:40;;;;;;;8.70;7.67;;;;;;;;;;5051963;28;20198;-80
2022/11/09 11:58:23;;;;;;;10.53;7.70;;;;;;;;;;5051695;28;20197;-79
2022/11/09 12:00:58;;;;;;;12.77;9.40;;;;;;;;;;5051702;28;20236;-79
2022/11/09 12:03:42;;;;;;;11.70;7.93;;;;;;;;;;5050989;28;20642;-80
2022/11/09 12:06:19;;;;;;;11.10;7.87;;;;;;;;;;5038531;28;20208;-80
2022/11/09 12:09:01;;;;;;;13.27;8.87;;;;;;;;;;5051136;28;20286;-80
2022/11/09 12:11:37;;;;;;;12.30;9.10;;;;;;;;;;5051496;28;20194;-79
2022/11/09 12:14:11;;;;;;;13.47;9.30;;;;;;;;;;5051686;28;20698;-80
2022/11/09 12:16:42;;;;;;;12.53;8.77;;;;;;;;;;5051840;28;20204;-79
2022/11/09 12:19:28;;;;;;;10.23;8.80;;;;;;;;;;5051406;28;20209;-80
2022/11/09 12:21:59;;;;;;;10.20;8.03;;;;;;;;;;5051364;28;20201;-80
2022/11/09 12:24:30;;;;;;;10.17;8.07;;;;;;;;;;5051531;28;20197;-80
2022/11/09 12:27:08;;;;;;;15.43;8.80;;;;;;;;;;5051571;28;20209;-79
2022/11/09 12:29:37;;;;;;;13.03;8.80;;;;;;;;;;5050588;28;20613;-80
2022/11/09 12:32:13;;;;;;;12.27;8.47;;;;;;;;;;5051637;28;20596;-80
2022/11/09 12:34:46;;;;;;;9.30;8.40;;;;;;;;;;5050926;28;20205;-80
2022/11/09 12:37:15;;;;;;;10.63;8.03;;;;;;;;;;5051178;28;20201;-79
2022/11/09 12:39:46;;;;;;;13.93;8.57;;;;;;;;;;5051020;28;20206;-80
2022/11/09 12:42:17;;;;;;;12.67;9.07;;;;;;;;;;5050235;28;20289;-80
2022/11/09 12:44:48;;;;;;;12.20;8.27;;;;;;;;;;5050716;28;20288;-80
2022/11/09 12:47:18;;;;;;;9.33;8.43;;;;;;;;;;5051133;28;20206;-80
2022/11/09 12:49:47;;;;;;;12.40;8.83;;;;;;;;;;5050946;28;20252;-80
2022/11/09 12:52:16;;;;;;;11.07;8.27;;;;;;;;;;5050649;28;20677;-79
2022/11/09 12:54:48;;;;;;;13.63;8.30;;;;;;;;;;5050257;28;20613;-80
2022/11/09 12:57:17;;;;;;;12.40;9.37;;;;;;;;;;5051034;28;20202;-79
2022/11/09 12:59:49;;;;;;;12.77;7.97;;;;;;;;;;5050544;28;20198;-79
2022/11/09 13:02:29;;;;;;;10.43;8.60;;;;;;;;;;5050353;28;20198;-79
2022/11/09 13:04:58;;;;;;;17.60;9.70;;;;;;;;;;5050624;28;20348;-80
2022/11/09 13:07:31;;;;;;;9.50;8.50;;;;;;;;;;5050714;28;20198;-79
2022/11/09 13:10:00;;;;;;;10.83;8.93;;;;;;;;;;5050598;28;20229;-79
2022/11/09 13:12:35;;;;;;;10.60;8.70;;;;;;;;;;5050291;28;20213;-80
2022/11/09 13:15:24;;;;;;;12.23;8.90;;;;;;;;;;5050108;28;20231;-79
2022/11/09 13:17:55;;;;;;;11.40;8.43;;;;;;;;;;5050804;28;20205;-79
2022/11/09 13:20:46;;;;;;;11.07;8.73;;;;;;;;;;5050691;28;20206;-79
2022/11/09 13:23:44;;;;;;;11.80;9.10;;;;;;;;;;5040325;28;20596;-79
2022/11/09 13:26:24;;;;;;;10.17;8.20;;;;;;;;;;5050319;28;20209;-80
2022/11/09 13:29:10;;;;;;;13.17;9.23;;;;;;;;;;5050372;28;20225;-79
2022/11/09 13:31:59;;;;;;;13.70;8.10;;;;;;;;;;5036708;28;20271;-80
2022/11/09 13:34:43;;;;;;;12.83;9.00;;;;;;;;;;5049820;28;20256;-80
2022/11/09 13:37:48;;;;;;;11.30;8.17;;;;;;;;;;5050328;28;20212;-80
2022/11/09 13:40:44;;;;;;;13.70;8.37;;;;;;;;;;5050390;28;20297;-79
2022/11/09 13:43:21;;;;;;;9.70;8.33;;;;;;;;;;5050267;28;20287;-80
2022/11/09 13:45:50;;;;;;;8.70;7.40;;;;;;;;;;5037156;28;20243;-79
2022/11/09 13:48:35;;;;;;;11.97;8.37;;;;;;;;;;5050455;28;20228;-79
2022/11/09 13:51:04;;;;;;;10.87;7.93;;;;;;;;;;5049549;28;20212;-79
2022/11/09 13:53:47;;;;;;;12.80;8.43;;;;;;;;;;5050213;28;20244;-80
2022/11/09 13:56:19;;;;;;;9.23;7.37;;;;;;;;;;5050215;28;20629;-79
2022/11/09 13:58:49;;;;;;;11.60;8.37;;;;;;;;;;5050185;28;20574;-79
2022/11/09 14:01:30;;;;;;;10.70;8.97;;;;;;;;;;5049524;28;20208;-80
2022/11/09 14:03:57;;;;;;;15.57;9.40;;;;;;;;;;5050376;28;20200;-79
2022/11/09 14:06:24;;;;;;;13.80;9.30;;;;;;;;;;5050573;28;20265;-79
2022/11/09 14:08:52;;;;;;;8.60;7.70;;;;;;;;;;5050075;28;20303;-78
2022/11/09 14:11:44;;;;;;;9.90;7.83;;;;;;;;;;5050232;28;20209;-79
2022/11/09 14:14:43;;;;;;;13.13;9.53;;;;;;;;;;5049437;28;20295;-79
2022/11/09 14:17:14;;;;;;;17.53;8.73;;;;;;;;;;5049664;28;20210;-79
2022/11/09 14:19:49;;;;;;;13.33;9.40;;;;;;;;;;5049326;28;20694;-79
2022/11/09 14:22:18;;;;;;;8.97;8.00;;;;;;;;;;5049711;28;20652;-79
2022/11/09 14:24:45;;;;;;;10.63;8.33;;;;;;;;;;5049638;28;20200;-79
2022/11/09 14:27:18;;;;;;;10.37;7.50;;;;;;;;;;5052965;28;20221;-79
2022/11/09 14:29:55;;;;;;;13.27;8.67;;;;;;;;;;5053331;28;20232;-79
2022/11/09 14:32:30;;;;;;;11.13;8.73;;;;;;;;;;5053504;28;20210;-79
2022/11/09 14:35:19;;;;;;;15.10;9.13;;;;;;;;;;5053408;28;20213;-79
2022/11/09 14:37:46;;;;;;;10.33;9.23;;;;;;;;;;5053474;28;20559;-79
2022/11/09 14:40:21;;;;;;;16.60;9.70;;;;;;;;;;5053281;28;20206;-79
2022/11/09 14:42:50;;;;;;;10.73;8.30;;;;;;;;;;5052972;28;20214;-79
2022/11/09 14:45:19;;;;;;;11.90;9.47;;;;;;;;;;5052817;28;20594;-80